Time;durP1;ratioP1;P1;durP2;ratioP2;P2;SDS_P1;SDS_P2;PMS_P1;PMS_P2;Temp;Humidity;BMP_temperature;BMP_pressure;BME280_temperature;BME280_humidity;BME280_pressure;Samples;Min_cycle;Max_cycle;Signal;HPM_P1;HPM_P2
2022/07/22 00:00:32;;;;;;;18.95;11.10;;;;;;;17.03;100.00;101023.03;5042636;28;20430;-89
2022/07/22 00:03:05;;;;;;;18.38;11.43;;;;;;;17.10;100.00;101031.63;5027575;28;20771;-87
2022/07/22 00:05:38;;;;;;;17.43;11.20;;;;;;;17.09;100.00;101030.00;5028079;28;20434;-89
2022/07/22 00:08:13;;;;;;;19.13;11.20;;;;;;;17.04;100.00;101029.34;5026884;28;20430;-87
2022/07/22 00:10:42;;;;;;;20.10;11.30;;;;;;;17.08;100.00;101028.41;5028064;28;20488;-89
2022/07/22 00:13:10;;;;;;;20.60;11.77;;;;;;;17.07;100.00;101024.03;5022251;28;20443;-88
2022/07/22 00:15:43;;;;;;;17.95;11.10;;;;;;;17.08;100.00;101027.56;5021164;28;20425;-87
2022/07/22 00:18:12;;;;;;;19.60;11.50;;;;;;;17.04;100.00;101023.84;5029514;28;20418;-88
2022/07/22 00:20:40;;;;;;;20.23;11.63;;;;;;;17.02;100.00;101015.91;5027693;28;20782;-89
2022/07/22 00:23:15;;;;;;;20.55;11.85;;;;;;;17.03;100.00;101019.44;5028680;28;20730;-89
2022/07/22 00:25:43;;;;;;;20.40;12.38;;;;;;;17.07;100.00;101024.03;5026172;28;20438;-88
2022/07/22 00:28:11;;;;;;;23.23;12.90;;;;;;;17.04;100.00;101021.91;5041162;28;20433;-89
2022/07/22 00:30:39;;;;;;;20.42;12.90;;;;;;;16.98;100.00;101009.41;5027953;28;20872;-89
2022/07/22 00:33:13;;;;;;;19.13;12.13;;;;;;;17.12;100.00;101023.06;5037107;28;20415;-89
2022/07/22 00:35:41;;;;;;;20.90;13.15;;;;;;;17.16;100.00;101024.06;5025614;28;20434;-89
2022/07/22 00:38:10;;;;;;;21.73;13.48;;;;;;;17.17;100.00;101023.75;5017337;28;20477;-88
2022/07/22 00:40:44;;;;;;;22.80;13.35;;;;;;;17.16;100.00;101013.88;5025114;28;20435;-90
2022/07/22 00:43:12;;;;;;;23.45;14.20;;;;;;;17.16;100.00;101015.81;5027634;28;20430;-89
2022/07/22 00:45:46;;;;;;;24.00;14.27;;;;;;;17.17;100.00;101014.69;5022384;28;20438;-88
2022/07/22 00:48:19;;;;;;;23.10;14.50;;;;;;;17.09;100.00;100988.75;5026067;28;20791;-89
2022/07/22 00:50:53;;;;;;;23.45;14.73;;;;;;;17.20;100.00;101014.06;5027220;28;20926;-89
2022/07/22 00:53:26;;;;;;;22.63;13.60;;;;;;;17.22;100.00;101019.22;5026300;28;20447;-89
2022/07/22 00:56:01;;;;;;;24.27;15.18;;;;;;;17.19;100.00;101017.91;5025726;28;20891;-90
2022/07/22 00:58:34;;;;;;;28.20;15.77;;;;;;;17.24;100.00;101019.75;5025712;28;20423;-88
2022/07/22 01:01:08;;;;;;;26.52;15.20;;;;;;;17.13;100.00;101003.50;5027008;28;20419;-88
2022/07/22 01:03:41;;;;;;;27.77;14.70;;;;;;;17.15;100.00;101006.75;5018714;28;20893;-88
2022/07/22 01:06:10;;;;;;;25.83;15.25;;;;;;;17.24;100.00;101020.53;5028814;28;20414;-89
2022/07/22 01:08:39;;;;;;;25.83;15.27;;;;;;;17.20;100.00;101021.50;5020509;28;20444;-88
2022/07/22 01:11:16;;;;;;;29.65;16.48;;;;;;;17.23;100.00;101018.13;5026992;28;20433;-88
2022/07/22 01:13:51;;;;;;;26.10;15.05;;;;;;;17.26;100.00;101020.22;5023940;28;20425;-88
2022/07/22 01:16:24;;;;;;;26.60;15.18;;;;;;;17.20;100.00;101007.75;5033048;28;20422;-88
2022/07/22 01:18:53;;;;;;;24.35;15.30;;;;;;;17.29;100.00;101017.66;5031388;28;20430;-87
2022/07/22 01:21:27;;;;;;;29.98;15.65;;;;;;;17.28;100.00;101016.03;5029599;28;20795;-85
2022/07/22 01:24:01;;;;;;;28.40;15.93;;;;;;;17.31;100.00;101011.84;5029075;28;20440;-86
2022/07/22 01:26:34;;;;;;;28.63;15.13;;;;;;;17.27;100.00;101014.41;5030629;28;20431;-86
2022/07/22 01:29:02;;;;;;;26.40;15.80;;;;;;;17.15;100.00;100990.25;5028978;28;20435;-87
2022/07/22 01:31:30;;;;;;;30.45;15.13;;;;;;;17.30;100.00;101010.22;5033609;28;20787;-88
2022/07/22 01:34:04;;;;;;;26.50;16.02;;;;;;;17.20;100.00;101002.25;5035002;28;20422;-88
2022/07/22 01:36:39;;;;;;;26.17;15.60;;;;;;;17.18;100.00;101010.81;5023275;28;20449;-88
2022/07/22 01:39:12;;;;;;;25.40;16.15;;;;;;;17.28;100.00;101013.28;5030651;28;20419;-87
2022/07/22 01:41:45;;;;;;;27.48;16.70;;;;;;;17.28;100.00;101012.47;5028963;28;20441;-88
2022/07/22 01:44:19;;;;;;;27.27;15.67;;;;;;;17.29;100.00;101011.31;5031991;28;20506;-88
2022/07/22 01:46:53;;;;;;;28.95;17.08;;;;;;;17.24;100.00;101020.53;5024792;28;20424;-89
2022/07/22 01:49:28;;;;;;;28.88;17.55;;;;;;;17.28;100.00;101016.03;5028529;28;20426;-89
2022/07/22 01:51:58;;;;;;;30.77;17.23;;;;;;;17.30;100.00;101021.22;5028710;28;20745;-88
2022/07/22 01:54:32;;;;;;;30.27;17.93;;;;;;;17.20;100.00;101005.81;5026758;28;20777;-89
2022/07/22 01:57:00;;;;;;;29.98;17.63;;;;;;;17.30;100.00;101019.28;5024348;28;20429;-88
2022/07/22 01:59:33;;;;;;;29.35;17.98;;;;;;;17.31;100.00;101017.34;5030168;28;20408;-90
2022/07/22 02:02:06;;;;;;;29.55;17.50;;;;;;;17.37;100.00;101026.25;5023528;28;20798;-89
2022/07/22 02:04:39;;;;;;;28.33;16.85;;;;;;;17.36;100.00;101027.38;5024549;28;20449;-89
2022/07/22 02:07:14;;;;;;;27.45;15.55;;;;;;;17.32;100.00;101032.72;5024687;28;20442;-90
2022/07/22 02:09:42;;;;;;;24.10;14.20;;;;;;;17.13;100.00;101033.75;5028669;28;20434;-89
2022/07/22 02:12:15;;;;;;;17.92;10.63;;;;;;;17.17;100.00;101034.75;5028570;28;20765;-90
2022/07/22 02:14:48;;;;;;;13.20;7.72;;;;;;;17.00;100.00;101026.41;5028191;28;20749;-89
2022/07/22 02:17:22;;;;;;;16.13;6.80;;;;;;;16.94;100.00;101038.66;5031540;28;20415;-89
2022/07/22 02:19:50;;;;;;;11.05;5.93;;;;;;;16.85;100.00;101030.34;5032225;28;20902;-88
2022/07/22 02:22:25;;;;;;;11.10;5.40;;;;;;;16.77;100.00;101037.41;5028331;28;20428;-89
2022/07/22 02:24:58;;;;;;;9.60;5.70;;;;;;;16.85;100.00;101035.84;5023998;28;20913;-87
2022/07/22 02:27:31;;;;;;;10.60;5.00;;;;;;;16.85;100.00;101038.59;5029388;28;20424;-89
2022/07/22 02:29:59;;;;;;;8.75;3.80;;;;;;;16.81;100.00;101032.09;5027171;28;20431;-88
2022/07/22 02:32:33;;;;;;;7.70;3.22;;;;;;;16.74;100.00;101051.75;5030209;28;20407;-88
2022/07/22 02:35:07;;;;;;;4.25;1.70;;;;;;;16.37;100.00;101050.19;5030469;28;20430;-90
2022/07/22 02:37:42;;;;;;;4.45;1.38;;;;;;;16.16;100.00;101058.88;5022556;28;20442;-88
2022/07/22 02:40:15;;;;;;;2.03;1.20;;;;;;;15.87;100.00;101057.31;5025586;28;20424;-89
2022/07/22 02:42:48;;;;;;;2.57;1.10;;;;;;;15.67;100.00;101063.97;5029572;28;20420;-90
2022/07/22 02:45:17;;;;;;;4.07;1.30;;;;;;;15.62;100.00;101064.91;5031458;28;20415;-90
2022/07/22 02:47:52;;;;;;;3.70;1.20;;;;;;;15.59;100.00;101065.50;5028733;28;20432;-88
2022/07/22 02:50:21;;;;;;;2.58;1.20;;;;;;;15.32;100.00;101069.03;5029274;28;20434;-88
2022/07/22 02:52:52;;;;;;;3.53;1.45;;;;;;;15.19;100.00;101067.91;5025581;28;20437;-88
2022/07/22 02:55:28;;;;;;;3.75;1.38;;;;;;;15.26;100.00;101084.78;5029780;28;20404;-88
2022/07/22 02:58:05;;;;;;;2.28;1.25;;;;;;;15.18;100.00;101076.41;5022845;28;20428;-88
2022/07/22 03:00:41;;;;;;;3.57;1.20;;;;;;;14.73;100.00;101027.56;5022993;28;20407;-87
2022/07/22 03:03:09;;;;;;;6.38;1.50;;;;;;;15.03;100.00;101086.53;5026210;28;20412;-87
2022/07/22 03:05:42;;;;;;;3.60;1.47;;;;;;;14.93;100.00;101086.72;5028146;28;20426;-87
2022/07/22 03:08:23;;;;;;;8.40;1.83;;;;;;;14.37;100.00;101031.66;5020385;28;20427;-88
2022/07/22 03:10:56;;;;;;;6.47;2.10;;;;;;;14.73;100.00;101090.59;5029051;28;20431;-87
2022/07/22 03:13:24;;;;;;;5.50;2.03;;;;;;;14.78;100.00;101096.78;5022590;28;20903;-87
2022/07/22 03:15:57;;;;;;;5.93;2.20;;;;;;;14.61;100.00;101100.03;5031027;28;20431;-88
2022/07/22 03:18:25;;;;;;;6.38;2.13;;;;;;;14.66;100.00;101093.69;5029287;28;20418;-89
2022/07/22 03:20:54;;;;;;;6.32;2.30;;;;;;;14.72;100.00;101088.94;5028262;28;20787;-87
2022/07/22 03:23:28;;;;;;;7.43;2.50;;;;;;;14.80;100.00;101096.50;5027850;28;20924;-88
2022/07/22 03:25:58;;;;;;;7.28;1.90;;;;;;;14.63;100.00;101103.31;5024357;28;20913;-86
2022/07/22 03:28:27;;;;;;;6.85;2.10;;;;;;;14.61;100.00;101091.00;5030140;28;20418;-87
2022/07/22 03:31:00;;;;;;;5.88;2.30;;;;;;;14.76;100.00;101103.69;5026069;28;20415;-88
2022/07/22 03:33:28;;;;;;;6.30;2.22;;;;;;;14.63;100.00;101099.78;5022798;28;20442;-86
2022/07/22 03:36:01;;;;;;;4.50;2.03;;;;;;;14.67;100.00;101095.34;5028687;28;20922;-87
2022/07/22 03:38:37;;;;;;;6.65;2.10;;;;;;;14.62;100.00;101095.38;5023106;28;20427;-88
2022/07/22 03:41:10;;;;;;;8.00;2.38;;;;;;;14.55;100.00;101103.16;5023417;28;20936;-88
2022/07/22 03:43:43;;;;;;;9.18;2.50;;;;;;;14.48;100.00;101098.03;5032554;28;20981;-87
2022/07/22 03:46:12;;;;;;;10.05;2.22;;;;;;;14.46;100.00;101101.06;5029236;28;20411;-86
2022/07/22 03:48:41;;;;;;;6.03;2.15;;;;;;;14.49;100.00;101109.81;5054512;28;20415;-88
2022/07/22 03:51:15;;;;;;;6.63;2.25;;;;;;;14.52;100.00;101107.28;5028874;28;20419;-89
2022/07/22 03:53:46;;;;;;;6.33;2.20;;;;;;;14.48;100.00;101117.22;5027192;28;20497;-87
2022/07/22 03:56:19;;;;;;;7.85;2.10;;;;;;;14.35;100.00;101120.66;5028718;28;20922;-87
2022/07/22 03:58:52;;;;;;;10.48;2.85;;;;;;;14.35;100.00;101120.66;5030988;28;20433;-88
2022/07/22 04:01:20;;;;;;;8.73;2.75;;;;;;;14.36;100.00;101117.66;5025743;28;20430;-86
2022/07/22 04:03:54;;;;;;;7.50;2.40;;;;;;;14.36;100.00;101120.41;5036265;28;20426;-87
2022/07/22 04:06:26;;;;;;;9.80;2.65;;;;;;;14.35;100.00;101116.03;5029636;28;20427;-87
2022/07/22 04:09:03;;;;;;;8.07;2.78;;;;;;;14.34;100.00;101121.81;5028166;28;20486;-89
2022/07/22 04:11:36;;;;;;;5.32;2.13;;;;;;;14.52;100.00;101115.50;5035912;28;20432;-84
2022/07/22 04:14:11;;;;;;;5.82;1.60;;;;;;;14.48;100.00;101119.94;5030013;28;20049;-88
2022/07/22 04:16:39;;;;;;;10.48;2.00;;;;;;;14.46;100.00;101116.72;5033435;28;20049;-88
2022/07/22 04:19:11;;;;;;;7.03;2.08;;;;;;;14.49;100.00;101112.56;5031993;28;20056;-88
2022/07/22 04:21:50;;;;;;;7.97;1.90;;;;;;;14.46;100.00;101122.19;5031875;28;20045;-87
2022/07/22 04:24:28;;;;;;;8.15;2.00;;;;;;;14.39;100.00;101110.75;5031645;28;20053;-87
2022/07/22 04:26:57;;;;;;;8.40;2.67;;;;;;;14.52;100.00;101131.13;5031755;28;20053;-87
2022/07/22 04:29:31;;;;;;;7.60;2.78;;;;;;;14.55;100.00;101123.13;5016371;28;20409;-87
2022/07/22 04:32:05;;;;;;;6.82;2.45;;;;;;;14.38;100.00;101122.84;5011775;28;20046;-87
2022/07/22 04:34:33;;;;;;;8.00;2.70;;;;;;;14.53;100.00;101124.53;5011927;28;20061;-87
2022/07/22 04:37:06;;;;;;;6.68;3.10;;;;;;;14.44;100.00;101121.66;5012108;28;20452;-87
2022/07/22 04:39:38;;;;;;;7.38;2.65;;;;;;;14.58;100.00;101136.25;5012193;28;20411;-87
2022/07/22 04:42:12;;;;;;;6.25;2.67;;;;;;;14.59;100.00;101128.84;5012093;28;20046;-86
2022/07/22 04:44:47;;;;;;;9.63;2.40;;;;;;;14.48;100.00;101141.84;5011793;28;20054;-89
2022/07/22 04:47:20;;;;;;;7.20;2.67;;;;;;;14.57;100.00;101140.09;5028515;28;20056;-86
2022/07/22 04:49:53;;;;;;;6.38;2.60;;;;;;;14.57;100.00;101144.75;5020341;28;20061;-86
2022/07/22 04:52:27;;;;;;;9.05;2.92;;;;;;;14.42;100.00;101124.69;5014938;28;20045;-85
2022/07/22 04:55:01;;;;;;;7.40;2.72;;;;;;;14.60;100.00;101146.91;5013411;28;20054;-87
2022/07/22 04:57:35;;;;;;;7.47;2.90;;;;;;;14.62;100.00;101147.41;5027918;28;20052;-85
2022/07/22 05:00:09;;;;;;;4.97;2.42;;;;;;;14.62;100.00;101150.16;5011846;28;20050;-87
2022/07/22 05:02:46;;;;;;;7.40;2.97;;;;;;;14.61;100.00;101148.50;5028169;28;20410;-87
2022/07/22 05:05:15;;;;;;;6.63;2.65;;;;;;;14.66;100.00;101153.16;5029119;28;20048;-87
2022/07/22 05:07:48;;;;;;;7.10;2.80;;;;;;;14.62;100.00;101152.88;5027824;28;20046;-86
2022/07/22 05:10:23;;;;;;;8.57;2.78;;;;;;;14.62;100.00;101151.00;5030965;28;20049;-84
2022/07/22 05:12:52;;;;;;;7.13;2.38;;;;;;;14.68;100.00;101150.91;5040846;28;20487;-87
2022/07/22 05:15:25;;;;;;;8.45;2.50;;;;;;;14.66;100.00;101155.91;5030814;28;20403;-88
2022/07/22 05:17:53;;;;;;;8.68;2.30;;;;;;;14.59;100.00;101157.03;5026045;28;20056;-87
2022/07/22 05:20:27;;;;;;;7.03;2.33;;;;;;;14.57;100.00;101144.75;5029160;28;20053;-87
2022/07/22 05:22:56;;;;;;;6.28;2.40;;;;;;;14.58;100.00;101149.13;5028780;28;20042;-87
2022/07/22 05:25:33;;;;;;;4.00;1.80;;;;;;;14.63;100.00;101154.56;5024852;28;20048;-85
2022/07/22 05:28:02;;;;;;;8.02;1.95;;;;;;;14.26;100.00;101104.91;5028896;28;20056;-87
2022/07/22 05:30:38;;;;;;;;;;;;;;;14.54;100.00;101157.13;5029359;28;20053;-87
2022/07/22 05:33:08;;;;;;;8.85;2.03;;;;;;;14.33;100.00;101110.00;5053187;28;19948;-87
2022/07/22 05:36:02;;;;;;;4.28;1.73;;;;;;;14.30;100.00;101102.41;5016034;28;20053;-88
2022/07/22 05:38:43;;;;;;;7.13;1.92;;;;;;;14.84;100.00;101163.28;5028390;28;20049;-86
2022/07/22 05:41:18;;;;;;;8.10;2.10;;;;;;;14.86;100.00;101149.28;5027379;28;20046;-87
2022/07/22 05:43:46;;;;;;;6.75;1.85;;;;;;;14.91;100.00;101151.97;5026578;28;20054;-85
2022/07/22 05:46:19;;;;;;;5.65;2.08;;;;;;;14.91;100.00;101150.03;5028367;28;20056;-87
2022/07/22 05:48:48;;;;;;;4.32;1.88;;;;;;;14.90;100.00;101147.56;5029637;28;20056;-88
2022/07/22 05:51:22;;;;;;;7.55;2.00;;;;;;;14.98;100.00;101152.38;5025025;28;20053;-86
2022/07/22 05:53:55;;;;;;;13.02;2.17;;;;;;;15.00;100.00;101150.19;5021992;28;20054;-87
2022/07/22 05:56:30;;;;;;;5.20;2.08;;;;;;;15.05;100.00;101154.75;5024823;28;20053;-87
2022/07/22 05:59:03;;;;;;;9.60;2.00;;;;;;;15.08;100.00;101154.16;5028685;28;20056;-86
2022/07/22 06:01:37;;;;;;;4.18;1.70;;;;;;;15.03;100.00;101160.53;5022169;28;20046;-86
2022/07/22 06:04:30;;;;;;;5.47;1.80;;;;;;;15.06;100.00;101170.91;5032336;28;20048;-86
2022/07/22 06:07:06;;;;;;;9.60;1.85;;;;;;;14.92;100.00;101150.84;5032807;28;20103;-87
2022/07/22 06:09:41;;;;;;;5.20;1.80;;;;;;;15.05;100.00;101158.31;5029203;28;20042;-86
2022/07/22 06:12:11;;;;;;;3.35;1.50;;;;;;;15.05;100.00;101166.56;5031393;28;20520;-86
2022/07/22 06:14:39;;;;;;;3.53;1.55;;;;;;;14.96;100.00;101157.38;5031841;28;20038;-86
2022/07/22 06:17:08;;;;;;;6.25;1.30;;;;;;;14.70;100.00;101174.19;5021647;28;20057;-87
2022/07/22 06:19:41;;;;;;;3.30;1.20;;;;;;;14.65;100.00;101170.69;5031728;28;20048;-85
2022/07/22 06:22:10;;;;;;;3.75;1.40;;;;;;;14.62;100.00;101166.59;5025835;28;20422;-86
2022/07/22 06:24:43;;;;;;;3.10;1.15;;;;;;;14.66;100.00;101161.38;5030336;28;20049;-86
2022/07/22 06:27:18;;;;;;;8.65;1.80;;;;;;;14.55;100.00;101152.44;5029570;28;20049;-87
2022/07/22 06:29:49;;;;;;;4.70;1.48;;;;;;;14.81;100.00;101168.56;5030562;28;20050;-87
2022/07/22 06:32:23;;;;;;;4.03;1.33;;;;;;;14.81;100.00;101174.03;5039088;28;20049;-86
2022/07/22 06:34:57;;;;;;;5.13;1.48;;;;;;;14.70;100.00;101174.19;5031418;28;20490;-86
2022/07/22 06:37:25;;;;;;;6.68;1.70;;;;;;;14.81;100.00;101171.31;5022839;28;20051;-87
2022/07/22 06:39:54;;;;;;;7.32;1.42;;;;;;;14.71;100.00;101164.06;5008743;28;21299;-85
2022/07/22 06:42:47;;;;;;;6.63;1.77;;;;;;;14.75;100.00;101178.78;5008461;28;20049;-85
2022/07/22 06:45:34;;;;;;;13.25;2.30;;;;;;;14.67;100.00;101157.53;5009935;28;20064;-87
2022/07/22 06:48:06;;;;;;;3.67;1.30;;;;;;;14.86;100.00;101174.78;5007054;28;20061;-87
2022/07/22 06:50:39;;;;;;;7.80;1.80;;;;;;;14.69;100.00;101156.09;5001130;28;20061;-88
2022/07/22 06:53:13;;;;;;;3.10;1.13;;;;;;;14.94;100.00;101178.75;5016148;28;20418;-86
2022/07/22 06:55:47;;;;;;;5.55;1.67;;;;;;;15.01;100.00;101170.16;5012420;28;20058;-88
2022/07/22 06:58:22;;;;;;;7.18;1.63;;;;;;;15.01;100.00;101171.00;5005672;28;20051;-87
2022/07/22 07:00:55;;;;;;;7.05;1.70;;;;;;;15.11;100.00;101164.53;5010501;28;20057;-87
2022/07/22 07:03:33;;;;;;;3.92;1.48;;;;;;;15.02;100.00;101169.88;5001176;28;20049;-86
2022/07/22 07:06:11;;;;;;;6.28;1.67;;;;;;;15.19;100.00;101171.25;5008849;28;20053;-87
2022/07/22 07:09:00;;;;;;;9.43;2.08;;;;;;;15.23;100.00;101175.03;5008144;28;20060;-88
2022/07/22 07:11:34;;;;;;;5.72;1.75;;;;;;;15.35;100.00;101167.16;5004953;28;20819;-85
2022/07/22 07:14:18;;;;;;;10.43;1.52;;;;;;;15.46;100.00;101167.78;5002280;28;20052;-87
2022/07/22 07:16:47;;;;;;;7.63;1.63;;;;;;;15.60;100.00;101171.38;5002724;28;20493;-87
2022/07/22 07:19:20;;;;;;;7.43;1.90;;;;;;;15.70;100.00;101166.81;5002499;28;20053;-86
2022/07/22 07:21:53;;;;;;;4.55;1.50;;;;;;;15.73;100.00;101166.22;5003047;28;20432;-87
2022/07/22 07:24:26;;;;;;;10.88;1.95;;;;;;;15.71;100.00;101165.72;5007024;28;20049;-87
2022/07/22 07:27:00;;;;;;;5.82;1.63;;;;;;;15.92;100.00;101169.75;5000048;28;20057;-86
2022/07/22 07:29:34;;;;;;;7.25;1.85;;;;;;;15.90;100.00;101166.47;5009613;28;20063;-87
2022/07/22 07:32:08;;;;;;;8.98;1.90;;;;;;;15.84;100.00;101148.47;5003166;28;20061;-88
2022/07/22 07:34:42;;;;;;;10.95;1.77;;;;;;;15.98;100.00;101168.50;5004176;28;20080;-88
2022/07/22 07:37:15;;;;;;;6.88;1.80;;;;;;;16.04;100.00;101169.22;5006860;28;20065;-86
2022/07/22 07:39:48;;;;;;;5.25;1.40;;;;;;;15.98;100.00;101164.97;5008584;28;20053;-87
2022/07/22 07:42:17;;;;;;;5.78;1.88;;;;;;;16.08;100.00;101177.66;5011202;28;20057;-88
2022/07/22 07:44:51;;;;;;;4.25;1.52;;;;;;;15.80;100.00;101155.69;5016091;28;20053;-86
2022/07/22 07:47:24;;;;;;;10.00;2.17;;;;;;;16.09;100.00;101184.78;5007956;28;20053;-87
2022/07/22 07:50:00;;;;;;;4.38;1.27;;;;;;;15.91;100.00;101183.75;5005845;28;20049;-86
2022/07/22 07:52:37;;;;;;;5.80;1.83;;;;;;;15.74;100.00;101159.59;5005257;28;20053;-85
2022/07/22 07:55:07;;;;;;;7.68;1.55;;;;;;;15.92;100.00;101180.72;5001406;28;20660;-86
2022/07/22 07:57:36;;;;;;;5.47;1.60;;;;;;;15.92;100.00;101171.66;5001726;28;20892;-85
2022/07/22 08:00:17;;;;;;;5.55;1.30;;;;;;;16.04;100.00;101185.69;5010967;28;20445;-86
2022/07/22 08:02:48;;;;;;;2.70;1.33;;;;;;;16.09;100.00;101190.28;5011793;28;20355;-86
2022/07/22 08:05:16;;;;;;;4.03;1.30;;;;;;;16.17;100.00;101184.06;5003229;28;20057;-86
2022/07/22 08:07:44;;;;;;;6.97;1.63;;;;;;;16.04;100.00;101169.22;5002127;28;20057;-86
2022/07/22 08:10:19;;;;;;;8.25;1.85;;;;;;;16.36;100.00;101186.69;5000371;28;20425;-87
2022/07/22 08:13:19;;;;;;;6.25;1.63;;;;;;;16.35;100.00;101189.75;4976766;28;20437;-85
2022/07/22 08:16:07;;;;;;;8.25;1.55;;;;;;;16.10;100.00;101180.91;5009017;28;20072;-84
2022/07/22 08:18:41;;;;;;;2.90;1.60;;;;;;;16.17;100.00;101196.97;5023994;28;20525;-87
2022/07/22 08:21:15;;;;;;;14.15;2.00;;;;;;;15.98;100.00;101179.47;5017324;28;20053;-87
2022/07/22 08:23:53;;;;;;;5.10;1.33;;;;;;;16.13;100.00;101197.59;5021777;28;20080;-86
2022/07/22 08:26:22;;;;;;;4.32;1.33;;;;;;;16.09;100.00;101206.75;5015791;28;20057;-86
2022/07/22 08:28:55;;;;;;;7.40;1.75;;;;;;;16.25;100.00;101205.31;5022929;28;20057;-83
2022/07/22 08:31:25;;;;;;;6.65;1.63;;;;;;;16.27;100.00;101213.25;5021919;28;20065;-85
2022/07/22 08:34:00;;;;;;;4.82;1.40;;;;;;;16.22;100.00;101210.63;5019529;28;20045;-84
2022/07/22 08:36:29;;;;;;;6.57;1.70;;;;;;;16.31;100.00;101212.34;5038788;28;20064;-85
2022/07/22 08:39:04;;;;;;;3.40;1.45;;;;;;;16.26;100.00;101219.88;5019776;28;20060;-86
2022/07/22 08:41:39;;;;;;;6.07;1.52;;;;;;;16.21;100.00;101209.78;5022227;28;20434;-86
2022/07/22 08:44:12;;;;;;;6.88;1.70;;;;;;;16.03;100.00;101219.75;5022260;28;20057;-84
2022/07/22 08:46:44;;;;;;;3.42;1.30;;;;;;;15.73;100.00;101205.44;5023283;28;20080;-84
2022/07/22 08:49:20;;;;;;;10.55;1.63;;;;;;;15.96;100.00;101220.16;5030092;28;20053;-85
2022/07/22 08:52:19;;;;;;;6.22;1.73;;;;;;;15.81;100.00;101226.75;5021582;28;20067;-85
2022/07/22 08:54:53;;;;;;;8.90;1.70;;;;;;;16.00;100.00;101227.78;5024860;28;20084;-86
2022/07/22 08:57:26;;;;;;;4.72;1.52;;;;;;;15.90;100.00;101195.84;5021663;28;20045;-85
2022/07/22 08:59:57;;;;;;;7.07;1.60;;;;;;;16.14;100.00;101218.44;5019901;28;20060;-85
2022/07/22 09:02:28;;;;;;;4.63;1.35;;;;;;;16.24;100.00;101219.34;5015995;28;20052;-86
2022/07/22 09:05:04;;;;;;;4.50;1.45;;;;;;;16.11;100.00;101185.28;5019381;28;20057;-87
2022/07/22 09:07:39;;;;;;;7.30;1.50;;;;;;;16.29;100.00;101219.25;5018527;28;20057;-84
2022/07/22 09:10:35;;;;;;;3.87;1.27;;;;;;;16.21;100.00;101225.47;5020707;28;20506;-85
2022/07/22 09:13:26;;;;;;;6.13;1.40;;;;;;;16.23;100.00;101224.03;5027703;28;20060;-86
2022/07/22 09:16:14;;;;;;;4.50;1.75;;;;;;;16.31;100.00;101231.56;5023087;28;20061;-85
2022/07/22 09:19:10;;;;;;;5.85;1.40;;;;;;;16.32;100.00;101229.63;5021083;28;20053;-85
2022/07/22 09:21:44;;;;;;;6.75;1.60;;;;;;;16.42;100.00;101232.19;5021429;28;20053;-85
2022/07/22 09:24:35;;;;;;;6.65;1.50;;;;;;;16.57;100.00;101233.81;5018192;28;20057;-84
2022/07/22 09:27:24;;;;;;;11.15;1.65;;;;;;;16.60;100.00;101230.44;5022097;28;20053;-86
2022/07/22 09:30:20;;;;;;;2.05;1.20;;;;;;;16.68;100.00;101228.88;5019718;28;21605;-85
2022/07/22 09:33:04;;;;;;;5.68;1.70;;;;;;;16.82;100.00;101228.84;5024415;28;20072;-88
2022/07/22 09:35:44;;;;;;;4.82;1.27;;;;;;;17.03;100.00;101229.25;5022644;28;20060;-86
2022/07/22 09:38:27;;;;;;;6.57;1.58;;;;;;;17.35;100.00;101232.91;5023516;28;20378;-86
2022/07/22 09:41:00;;;;;;;7.75;1.60;;;;;;;17.37;100.00;101229.84;5025196;28;20068;-85
2022/07/22 09:43:37;;;;;;;9.02;1.75;;;;;;;17.48;100.00;101226.53;5025029;28;20064;-85
2022/07/22 09:46:10;;;;;;;4.82;1.70;;;;;;;17.42;100.00;101213.22;5014971;28;20045;-86
2022/07/22 09:49:31;;;;;;;3.55;1.48;;;;;;;17.55;100.00;101222.50;4987989;28;20703;-86
2022/07/22 09:52:24;;;;;;;4.85;1.40;;;;;;;16.98;100.00;101218.38;5013009;28;20069;-86
2022/07/22 09:55:08;;;;;;;1.83;1.15;;;;;;;17.03;100.00;101222.91;5008538;28;20064;-86
2022/07/22 09:57:38;;;;;;;6.63;1.30;;;;;;;17.16;100.00;101233.06;5016110;28;20886;-85
2022/07/22 10:00:08;;;;;;;6.25;1.30;;;;;;;17.19;100.00;101240.69;5011318;28;20501;-87
2022/07/22 10:02:49;;;;;;;3.17;1.30;;;;;;;17.34;100.00;101237.59;5011134;28;20373;-87
2022/07/22 10:05:25;;;;;;;4.50;1.40;;;;;;;17.57;100.00;101226.56;5006561;28;20045;-87
2022/07/22 10:08:01;;;;;;;3.85;1.30;;;;;;;17.61;100.00;101221.28;5005459;28;20429;-86
2022/07/22 10:10:37;;;;;;;2.90;1.27;;;;;;;17.70;100.00;101227.63;5005557;28;20050;-86
2022/07/22 10:13:07;;;;;;;4.70;1.10;;;;;;;17.49;100.00;101230.09;5006889;28;21309;-87
2022/07/22 10:15:37;;;;;;;4.43;1.27;;;;;;;17.68;100.00;101241.69;5008790;28;20084;-87
2022/07/22 10:18:15;;;;;;;4.72;1.50;;;;;;;17.56;100.00;101238.69;5009879;28;20057;-87
2022/07/22 10:21:01;;;;;;;6.07;1.58;;;;;;;17.63;100.00;101230.00;5007965;28;20611;-87
2022/07/22 10:23:37;;;;;;;2.90;1.13;;;;;;;17.64;100.00;101239.91;5016391;28;20413;-86
2022/07/22 10:26:06;;;;;;;2.85;1.25;;;;;;;17.59;100.00;101221.56;5004669;28;20060;-85
2022/07/22 10:28:39;;;;;;;3.30;1.27;;;;;;;17.82;100.00;101227.84;5009385;28;20061;-85
2022/07/22 10:31:21;;;;;;;7.40;1.40;;;;;;;18.10;100.00;101235.16;5013313;28;20057;-87
2022/07/22 10:33:56;;;;;;;3.70;1.17;;;;;;;18.20;100.00;101232.09;5003160;28;20057;-85
2022/07/22 10:36:35;;;;;;;3.33;0.98;;;;;;;18.08;100.00;101232.72;5008692;28;20068;-86
2022/07/22 10:39:11;;;;;;;5.35;1.35;;;;;;;17.93;100.00;101238.63;5009725;28;20603;-85
2022/07/22 10:41:46;;;;;;;14.68;7.63;;;;;;;18.08;100.00;101237.41;5009706;28;20045;-85
2022/07/22 10:44:47;;;;;;;4.43;1.48;;;;;;;18.04;100.00;101228.97;5009587;28;21326;-87
2022/07/22 10:47:53;;;;;;;3.50;1.30;;;;;;;17.99;100.00;101240.94;5002838;28;20061;-85
2022/07/22 10:50:49;;;;;;;3.53;1.17;;;;;;;17.89;100.00;101234.88;5010430;28;20061;-85
2022/07/22 10:53:20;;;;;;;2.88;1.23;;;;;;;17.76;100.00;101250.31;5004108;28;20057;-84
2022/07/22 10:56:12;;;;;;;4.88;1.20;;;;;;;17.79;100.00;101257.97;5004981;28;20055;-88
2022/07/22 10:58:55;;;;;;;5.00;1.70;;;;;;;17.63;100.00;101249.28;5009498;28;20057;-87
2022/07/22 11:01:27;;;;;;;12.43;3.40;;;;;;;17.75;100.00;101249.50;5002090;28;20057;-85
2022/07/22 11:04:12;;;;;;;5.45;1.30;;;;;;;17.87;100.00;101251.69;5005241;28;20053;-88
2022/07/22 11:06:47;;;;;;;7.78;1.50;;;;;;;17.98;100.00;101238.47;5005563;28;20045;-86
2022/07/22 11:09:23;;;;;;;6.13;2.00;;;;;;;18.11;100.00;101245.03;5000790;28;20501;-86
2022/07/22 11:11:58;;;;;;;2.15;1.25;;;;;;;18.11;100.00;101253.31;5001720;28;20061;-85
2022/07/22 11:14:32;;;;;;;2.83;1.15;;;;;;;18.15;100.00;101235.00;5001466;28;20414;-86
2022/07/22 11:17:08;;;;;;;7.20;1.33;;;;;;;18.17;100.00;101252.03;5007758;28;20647;-85
2022/07/22 11:19:42;;;;;;;4.20;1.38;;;;;;;17.98;100.00;101241.22;5005237;28;20057;-85
2022/07/22 11:22:12;;;;;;;2.78;1.20;;;;;;;17.99;100.00;101243.69;4999259;28;20056;-87
2022/07/22 11:24:50;;;;;;;3.90;1.25;;;;;;;17.93;100.00;101247.69;5002106;28;20057;-84
2022/07/22 11:27:25;;;;;;;5.95;1.48;;;;;;;17.67;100.00;101217.25;5025662;28;20045;-86
2022/07/22 11:29:58;;;;;;;5.75;1.40;;;;;;;17.77;100.00;101238.19;5012329;28;20079;-84
2022/07/22 11:32:31;;;;;;;4.28;1.08;;;;;;;17.91;100.00;101260.13;5008047;28;20049;-85
2022/07/22 11:35:06;;;;;;;3.92;1.13;;;;;;;17.93;100.00;101255.97;5005766;28;20438;-85
2022/07/22 11:37:39;;;;;;;4.32;1.40;;;;;;;17.93;100.00;101252.41;4976030;28;20050;-85
2022/07/22 11:40:13;;;;;;;4.07;1.25;;;;;;;17.80;100.00;101251.31;5004812;28;20053;-83
2022/07/22 11:42:42;;;;;;;3.10;1.08;;;;;;;17.71;100.00;101250.47;5002881;28;20418;-85
2022/07/22 11:45:15;;;;;;;5.45;1.40;;;;;;;17.75;100.00;101251.47;5010881;28;20328;-82
2022/07/22 11:47:50;;;;;;;2.80;1.25;;;;;;;17.92;100.00;101248.03;5003183;28;20064;-85